Time;durP1;ratioP1;P1;durP2;ratioP2;P2;SDS_P1;SDS_P2;PMS_P1;PMS_P2;Temp;Humidity;BMP_temperature;BMP_pressure;BME280_temperature;BME280_humidity;BME280_pressure;Samples;Min_cycle;Max_cycle;Signal;HPM_P1;HPM_P2
2022/04/21 00:01:31;;;;;;;4.10;2.00;;;;;;;19.54;53.46;99699.03;5095363;28;20174;-60
2022/04/21 00:03:56;;;;;;;2.60;1.60;;;;;;;19.55;52.72;99702.69;5077132;28;20171;-60
2022/04/21 00:06:22;;;;;;;3.30;1.93;;;;;;;19.55;52.55;99706.38;5094716;28;20764;-60
2022/04/21 00:08:47;;;;;;;3.23;1.70;;;;;;;19.56;52.36;99701.50;5094607;28;20188;-61
2022/04/21 00:11:13;;;;;;;3.67;1.93;;;;;;;19.56;52.55;99708.03;5093925;28;20181;-60
2022/04/21 00:13:38;;;;;;;2.20;1.50;;;;;;;19.55;52.74;99697.78;5093323;28;20202;-60
2022/04/21 00:16:04;;;;;;;2.77;1.43;;;;;;;19.54;52.68;99699.03;5093160;28;20200;-60
2022/04/21 00:18:30;;;;;;;3.80;2.10;;;;;;;19.57;52.33;99694.53;5093282;28;20182;-60
2022/04/21 00:20:58;;;;;;;2.90;1.80;;;;;;;19.55;52.57;99692.06;5093281;28;20175;-60
2022/04/21 00:23:27;;;;;;;3.30;2.07;;;;;;;19.56;52.72;99690.84;5091694;28;20178;-60
2022/04/21 00:25:54;;;;;;;3.37;1.90;;;;;;;19.55;52.62;99683.47;5076227;28;20755;-61
2022/04/21 00:28:20;;;;;;;4.73;2.07;;;;;;;19.56;52.79;99690.84;5093552;28;20432;-61
2022/04/21 00:30:45;;;;;;;4.13;1.73;;;;;;;19.55;52.76;99688.38;5093290;28;20417;-60
2022/04/21 00:33:11;;;;;;;2.70;1.93;;;;;;;19.56;52.95;99678.59;5093136;28;20416;-60
2022/04/21 00:35:36;;;;;;;2.60;1.67;;;;;;;19.56;52.68;99684.31;5092828;28;20174;-60
2022/04/21 00:38:02;;;;;;;2.67;1.73;;;;;;;19.57;52.88;99680.22;5092781;28;20179;-62
2022/04/21 00:40:29;;;;;;;3.17;2.23;;;;;;;19.56;52.86;99685.13;5093213;28;20236;-60
2022/04/21 00:42:54;;;;;;;2.93;2.00;;;;;;;19.55;52.94;99683.47;5093742;28;20658;-60
2022/04/21 00:45:20;;;;;;;2.70;1.60;;;;;;;19.56;52.97;99682.25;5083386;28;20592;-60
2022/04/21 00:47:46;;;;;;;2.70;1.73;;;;;;;19.57;53.59;99686.75;5074092;28;20175;-60
2022/04/21 00:50:24;;;;;;;3.93;2.00;;;;;;;19.57;53.03;99685.94;5055804;28;20175;-60
2022/04/21 00:52:51;;;;;;;2.30;1.50;;;;;;;19.55;52.69;99689.22;5073642;28;20228;-60
2022/04/21 00:55:18;;;;;;;3.63;2.10;;;;;;;19.56;53.34;99685.13;5077410;28;20971;-62
2022/04/21 00:57:44;;;;;;;2.70;1.50;;;;;;;19.56;52.74;99679.38;5094581;28;20779;-60
2022/04/21 01:00:14;;;;;;;3.03;1.83;;;;;;;19.56;53.04;99679.38;5076140;28;20420;-60
2022/04/21 01:02:55;;;;;;;3.20;1.87;;;;;;;19.56;53.60;99684.31;5090925;28;20235;-60
2022/04/21 01:05:30;;;;;;;2.50;1.50;;;;;;;19.55;53.01;99672.03;5093648;28;20408;-60
2022/04/21 01:08:05;;;;;;;2.83;1.70;;;;;;;19.56;53.47;99678.59;5093390;28;20532;-62
2022/04/21 01:10:32;;;;;;;2.70;1.70;;;;;;;19.55;53.06;99674.88;5075519;28;20426;-60
2022/04/21 01:12:59;;;;;;;2.37;1.70;;;;;;;19.55;53.25;99672.03;5093472;28;20915;-60
2022/04/21 01:15:27;;;;;;;2.33;1.53;;;;;;;19.56;53.10;99672.88;5093358;28;20455;-60
2022/04/21 01:17:53;;;;;;;2.80;1.80;;;;;;;19.55;53.01;99672.03;5093915;28;20487;-61
2022/04/21 01:20:19;;;;;;;2.90;1.70;;;;;;;19.55;53.37;99680.63;5092558;28;20495;-61
2022/04/21 01:22:45;;;;;;;2.60;1.57;;;;;;;19.54;53.38;99670.41;5093329;28;20261;-60
2022/04/21 01:25:13;;;;;;;3.20;1.80;;;;;;;19.54;53.63;99670.41;5093404;28;20495;-60
2022/04/21 01:27:39;;;;;;;3.63;2.17;;;;;;;19.54;53.28;99670.41;5091664;28;20175;-60
2022/04/21 01:30:06;;;;;;;2.50;1.67;;;;;;;19.54;53.63;99664.66;5075264;28;20835;-60
2022/04/21 01:32:35;;;;;;;2.93;1.90;;;;;;;19.54;53.32;99664.66;5072175;28;20236;-60
2022/04/21 01:35:04;;;;;;;2.90;1.60;;;;;;;19.55;53.17;99656.88;5071477;28;20445;-60
2022/04/21 01:42:58;;;;;;;3.97;2.10;;;;;;;19.54;53.10;99658.94;5057899;28;20562;-60
2022/04/21 01:45:23;;;;;;;2.70;1.50;;;;;;;19.52;53.33;99654.84;5072862;28;20811;-61
2022/04/21 01:47:48;;;;;;;3.03;2.23;;;;;;;19.53;53.27;99656.47;5080900;28;20179;-60
2022/04/21 01:50:14;;;;;;;2.47;1.57;;;;;;;19.54;53.33;99667.53;5092364;28;20229;-60
2022/04/21 01:52:39;;;;;;;2.40;1.60;;;;;;;19.54;53.23;99663.84;5093242;28;20174;-60
2022/04/21 01:55:05;;;;;;;3.07;1.87;;;;;;;19.52;53.79;99660.56;5092548;28;20190;-60
2022/04/21 01:57:31;;;;;;;3.00;1.50;;;;;;;19.52;53.75;99660.56;5093139;28;20182;-61
2022/04/21 01:59:56;;;;;;;3.03;1.97;;;;;;;19.51;53.47;99651.16;5092804;28;20767;-60
2022/04/21 02:02:22;;;;;;;2.70;1.73;;;;;;;19.52;53.36;99652.78;5092346;28;20159;-60
2022/04/21 02:04:47;;;;;;;3.80;1.80;;;;;;;19.52;53.58;99646.25;5092199;28;20169;-60
2022/04/21 02:07:14;;;;;;;2.97;1.57;;;;;;;19.52;53.67;99634.81;5092846;28;20219;-60
2022/04/21 02:09:40;;;;;;;2.30;1.50;;;;;;;19.51;53.73;99642.56;5092117;28;20558;-60
2022/04/21 02:12:06;;;;;;;4.17;1.87;;;;;;;19.50;53.61;99640.94;5092797;28;20435;-60
2022/04/21 02:14:32;;;;;;;2.67;1.93;;;;;;;19.53;53.83;99633.56;5092461;28;20824;-60
2022/04/21 02:16:57;;;;;;;2.80;1.70;;;;;;;19.51;53.59;99642.56;5092471;28;20503;-60
2022/04/21 02:19:23;;;;;;;2.60;1.57;;;;;;;19.52;54.01;99649.13;5091859;28;20166;-60
2022/04/21 02:21:48;;;;;;;2.90;1.53;;;;;;;19.51;53.66;99636.84;5092397;28;20177;-60
2022/04/21 02:24:14;;;;;;;2.43;1.70;;;;;;;19.51;53.71;99636.84;5092082;28;20177;-60
2022/04/21 02:26:39;;;;;;;3.10;1.73;;;;;;;19.50;53.85;99640.94;5092267;28;20175;-60
2022/04/21 02:29:04;;;;;;;3.00;2.00;;;;;;;19.50;53.68;99637.22;5091992;28;20174;-61
2022/04/21 02:31:30;;;;;;;2.07;1.50;;;;;;;19.50;53.55;99652.38;5092127;28;20178;-60
2022/04/21 02:33:55;;;;;;;2.83;1.67;;;;;;;19.50;53.73;99642.97;5092487;28;20200;-60
2022/04/21 02:36:21;;;;;;;1.93;1.40;;;;;;;19.49;53.66;99644.19;5092214;28;20174;-60
2022/04/21 02:38:46;;;;;;;2.60;1.73;;;;;;;19.48;54.02;99643.38;5091746;28;20244;-60
2022/04/21 02:41:12;;;;;;;2.70;1.57;;;;;;;19.50;53.69;99640.09;5091927;28;20177;-60
2022/04/21 02:43:37;;;;;;;2.17;1.37;;;;;;;19.49;53.75;99644.19;5092114;28;20174;-60
2022/04/21 02:46:03;;;;;;;2.67;1.83;;;;;;;19.49;53.73;99647.88;5091687;28;20186;-60
2022/04/21 02:48:29;;;;;;;2.90;2.03;;;;;;;19.50;53.68;99640.94;5074063;28;20186;-60
2022/04/21 02:50:54;;;;;;;2.57;1.43;;;;;;;19.48;54.09;99640.53;5037146;28;20654;-60
2022/04/21 02:57:19;;;;;;;5.40;1.60;;;;;;;19.48;53.79;99640.53;5071595;28;20452;-60
2022/04/21 02:58:49;;;;;;;3.27;1.70;;;;;;;19.49;54.12;99639.28;5091667;28;20396;-60
2022/04/21 03:01:15;;;;;;;2.30;1.40;;;;;;;19.50;53.68;99643.78;5076365;28;20892;-60
2022/04/21 03:03:40;;;;;;;2.80;1.70;;;;;;;19.47;53.91;99636.00;5071470;28;20159;-60
2022/04/21 03:06:06;;;;;;;2.70;1.57;;;;;;;19.48;53.87;99642.56;5071242;28;20175;-60
2022/04/21 03:08:31;;;;;;;2.30;1.60;;;;;;;19.48;53.91;99631.09;5056582;28;20232;-60
2022/04/21 03:10:56;;;;;;;2.70;1.70;;;;;;;19.48;54.05;99631.09;5091465;28;20174;-60
2022/04/21 03:13:22;;;;;;;3.17;2.27;;;;;;;19.49;53.93;99632.72;5091758;28;20186;-60
2022/04/21 03:15:47;;;;;;;2.37;1.67;;;;;;;19.48;54.21;99626.22;5097650;28;20196;-60
2022/04/21 03:18:13;;;;;;;3.23;1.70;;;;;;;19.46;54.14;99631.50;5098198;28;20174;-60
2022/04/21 03:26:06;;;;;;;2.40;1.53;;;;;;;19.47;54.38;99624.53;5089082;28;20419;-60
2022/04/21 03:28:31;;;;;;;2.37;1.50;;;;;;;19.47;54.04;99624.53;5098410;28;20907;-60
2022/04/21 03:30:57;;;;;;;2.70;1.67;;;;;;;19.46;54.04;99625.78;5097519;28;20614;-60
2022/04/21 03:33:24;;;;;;;3.73;1.60;;;;;;;19.46;53.93;99628.63;5077030;28;20189;-60
2022/04/21 03:35:50;;;;;;;2.90;1.90;;;;;;;19.46;54.54;99634.34;5096963;28;20259;-60
2022/04/21 03:38:15;;;;;;;2.60;1.60;;;;;;;19.48;54.36;99628.25;5097126;28;20863;-60
2022/04/21 03:40:40;;;;;;;3.10;1.90;;;;;;;19.45;53.97;99624.13;5097698;28;20174;-60
2022/04/21 03:43:07;;;;;;;2.97;1.70;;;;;;;19.47;53.84;99623.75;5098631;28;20178;-60
2022/04/21 03:45:34;;;;;;;2.33;1.43;;;;;;;19.48;54.26;99619.66;5097664;28;20248;-60
2022/04/21 03:48:01;;;;;;;2.50;1.50;;;;;;;19.48;54.25;99623.34;5098489;28;20408;-61
2022/04/21 03:50:26;;;;;;;2.87;1.77;;;;;;;19.45;54.06;99623.31;5097662;28;20416;-60
2022/04/21 03:52:52;;;;;;;2.33;1.30;;;;;;;19.45;54.12;99627.00;5098153;28;20408;-60
2022/04/21 03:55:17;;;;;;;2.10;1.43;;;;;;;19.46;54.01;99627.84;5097667;28;20190;-60
2022/04/21 03:57:43;;;;;;;2.60;1.70;;;;;;;19.45;54.47;99624.13;5098376;28;20174;-60
2022/04/21 04:00:10;;;;;;;2.03;1.33;;;;;;;19.45;54.34;99623.31;5097747;28;20177;-60
2022/04/21 04:02:35;;;;;;;2.60;1.70;;;;;;;19.44;54.51;99625.38;5098160;28;20186;-60
2022/04/21 04:05:02;;;;;;;2.20;1.40;;;;;;;19.45;54.01;99615.56;5097779;28;20507;-60
2022/04/21 04:12:55;;;;;;;3.40;1.97;;;;;;;19.45;54.25;99626.16;5097921;28;20571;-60
2022/04/21 04:15:21;;;;;;;2.40;1.40;;;;;;;19.44;54.47;99625.38;5097855;28;20887;-60
2022/04/21 04:17:47;;;;;;;2.70;1.63;;;;;;;19.45;54.11;99624.13;5097951;28;20209;-60
2022/04/21 04:20:12;;;;;;;2.70;1.80;;;;;;;19.45;54.29;99626.16;5097894;28;20447;-60
2022/04/21 04:22:42;;;;;;;2.00;1.30;;;;;;;19.44;54.40;99625.38;5097750;28;20170;-60
2022/04/21 04:25:10;;;;;;;2.07;1.40;;;;;;;19.44;54.22;99619.63;5097057;28;20284;-60
2022/04/21 04:27:36;;;;;;;2.30;1.43;;;;;;;19.43;53.97;99629.47;5092773;28;20908;-60
2022/04/21 04:30:05;;;;;;;1.87;1.30;;;;;;;19.45;54.34;99629.03;5094681;28;20474;-60
2022/04/21 04:32:31;;;;;;;3.13;1.60;;;;;;;19.45;54.71;99626.16;5094495;28;20625;-60
2022/04/21 04:34:56;;;;;;;2.50;1.50;;;;;;;19.44;54.26;99621.66;5094376;28;20461;-60
2022/04/21 04:37:21;;;;;;;2.60;1.23;;;;;;;19.44;54.21;99621.66;5094439;28;20166;-60
2022/04/21 04:39:47;;;;;;;2.23;1.33;;;;;;;19.43;54.25;99614.31;5094132;28;20175;-60
2022/04/21 04:42:21;;;;;;;2.40;1.33;;;;;;;19.44;54.33;99619.63;5094264;28;20174;-60
2022/04/21 04:44:47;;;;;;;2.27;1.30;;;;;;;19.41;54.17;99620.44;5094190;28;20162;-60
2022/04/21 04:47:12;;;;;;;2.20;1.40;;;;;;;19.43;54.84;99629.47;5094141;28;20440;-60
2022/04/21 04:49:38;;;;;;;2.47;1.50;;;;;;;19.43;54.06;99618.00;5094147;28;20447;-60
2022/04/21 04:52:04;;;;;;;3.27;1.40;;;;;;;19.42;54.34;99619.22;5081677;28;20175;-60
2022/04/21 04:54:29;;;;;;;2.43;1.50;;;;;;;19.43;54.36;99629.47;5076122;28;20199;-60
2022/04/21 04:56:55;;;;;;;2.07;1.43;;;;;;;19.44;54.47;99633.13;5088546;28;20237;-60
2022/04/21 04:59:21;;;;;;;2.80;1.60;;;;;;;19.43;54.37;99632.31;5074201;28;20625;-60
2022/04/21 05:01:46;;;;;;;2.20;1.40;;;;;;;19.43;54.44;99632.31;5074487;28;20425;-60
2022/04/21 05:04:19;;;;;;;2.03;1.10;;;;;;;19.42;54.55;99635.59;5073582;28;20170;-60
2022/04/21 05:06:45;;;;;;;2.50;1.40;;;;;;;19.43;54.41;99642.94;5055417;28;20222;-60
2022/04/21 05:09:15;;;;;;;2.10;1.50;;;;;;;19.43;54.45;99631.50;5073724;28;20455;-60
2022/04/21 05:11:41;;;;;;;2.70;1.70;;;;;;;19.43;54.12;99637.22;5073328;28;20421;-60
2022/04/21 05:14:07;;;;;;;2.47;1.57;;;;;;;19.42;54.25;99630.66;5091887;28;20456;-60
2022/04/21 05:16:33;;;;;;;3.03;1.70;;;;;;;19.42;55.03;99627.78;5093787;28;20939;-61
2022/04/21 05:18:59;;;;;;;2.67;1.80;;;;;;;19.42;54.57;99633.53;5093719;28;20193;-60
2022/04/21 05:21:25;;;;;;;2.67;1.70;;;;;;;19.43;54.22;99622.91;5074960;28;20186;-60
2022/04/21 05:23:56;;;;;;;2.20;1.40;;;;;;;19.41;54.28;99620.44;5093232;28;20175;-60
2022/04/21 05:26:22;;;;;;;2.23;1.30;;;;;;;19.42;54.73;99619.22;5093244;28;20229;-60
2022/04/21 05:28:47;;;;;;;2.50;1.50;;;;;;;19.44;54.70;99618.81;5093418;28;20515;-60
2022/04/21 05:31:14;;;;;;;2.30;1.30;;;;;;;19.42;54.25;99610.63;5087716;28;20182;-60
2022/04/21 05:33:40;;;;;;;2.10;1.20;;;;;;;19.42;54.65;99624.94;5072770;28;20199;-60
2022/04/21 05:36:05;;;;;;;2.00;1.20;;;;;;;19.43;54.37;99612.28;5073218;28;20475;-60
2022/04/21 05:38:31;;;;;;;2.67;1.60;;;;;;;19.42;54.43;99615.53;5090987;28;20269;-60
2022/04/21 05:40:57;;;;;;;2.93;1.77;;;;;;;19.42;54.36;99619.22;5090282;28;20209;-60
2022/04/21 05:43:28;;;;;;;2.17;1.20;;;;;;;19.42;54.33;99627.00;5073168;28;20548;-60
2022/04/21 05:45:53;;;;;;;2.37;1.50;;;;;;;19.42;54.34;99616.34;5073171;28;20244;-60
2022/04/21 05:48:19;;;;;;;2.23;1.50;;;;;;;19.42;54.58;99613.47;5073088;28;20900;-60
2022/04/21 05:50:47;;;;;;;2.47;1.40;;;;;;;19.42;54.18;99610.63;5072965;28;20171;-60
2022/04/21 05:53:17;;;;;;;2.83;1.53;;;;;;;19.41;54.38;99609.00;5086259;28;20280;-60
2022/04/21 05:55:43;;;;;;;2.47;1.40;;;;;;;19.42;54.65;99604.09;5058624;28;20432;-60
2022/04/21 05:58:09;;;;;;;2.70;1.87;;;;;;;19.41;54.43;99609.00;5074848;28;20570;-60
2022/04/21 06:00:35;;;;;;;2.83;1.67;;;;;;;19.43;55.10;99605.72;5092787;28;20261;-60
2022/04/21 06:03:00;;;;;;;2.47;1.40;;;;;;;19.42;54.68;99602.03;5092564;28;20487;-60
2022/04/21 06:05:26;;;;;;;2.20;1.30;;;;;;;19.41;54.40;99606.13;5092939;28;20178;-60
2022/04/21 06:07:51;;;;;;;2.13;1.20;;;;;;;19.43;54.46;99602.88;5092399;28;20252;-60
2022/04/21 06:10:17;;;;;;;2.20;1.40;;;;;;;19.43;54.48;99608.59;5092470;28;20174;-60
2022/04/21 06:12:43;;;;;;;2.47;1.50;;;;;;;19.40;54.74;99604.50;5092601;28;20185;-60
2022/04/21 06:15:09;;;;;;;2.20;1.40;;;;;;;19.42;54.37;99604.91;5092472;28;20243;-60
2022/04/21 06:17:34;;;;;;;2.17;1.43;;;;;;;19.42;54.49;99604.09;5092253;28;20218;-60
2022/04/21 06:19:59;;;;;;;2.50;1.60;;;;;;;19.42;54.67;99607.75;5092336;28;20191;-60
2022/04/21 06:22:25;;;;;;;2.30;1.40;;;;;;;19.42;54.72;99599.16;5092440;28;20636;-60
2022/04/21 06:24:51;;;;;;;2.20;1.30;;;;;;;19.41;54.56;99597.53;5092377;28;20178;-60
2022/04/21 06:27:16;;;;;;;2.20;1.50;;;;;;;19.43;54.29;99605.72;5092474;28;20182;-60
2022/04/21 06:29:41;;;;;;;2.00;1.23;;;;;;;19.42;54.56;99599.16;5092337;28;20167;-60
2022/04/21 06:32:07;;;;;;;2.20;1.40;;;;;;;19.43;54.46;99608.59;5092015;28;20693;-60
2022/04/21 06:34:33;;;;;;;2.20;1.30;;;;;;;19.42;54.47;99601.22;5091886;28;20566;-60
2022/04/21 06:37:01;;;;;;;1.93;1.23;;;;;;;19.43;54.44;99606.56;5092263;28;20185;-60
2022/04/21 06:39:27;;;;;;;2.00;1.30;;;;;;;19.43;54.41;99603.69;5092036;28;20723;-60
2022/04/21 06:41:53;;;;;;;2.20;1.30;;;;;;;19.44;54.37;99604.50;5092128;28;20424;-60
2022/04/21 06:49:46;;;;;;;2.03;1.10;;;;;;;19.43;53.85;99597.97;5071259;28;20471;-60
2022/04/21 06:52:11;;;;;;;3.10;1.47;;;;;;;19.43;54.35;99602.88;5071507;28;20420;-60
2022/04/21 06:54:37;;;;;;;2.33;1.40;;;;;;;19.41;54.59;99611.84;5078193;28;20201;-60
2022/04/21 06:57:02;;;;;;;2.13;1.30;;;;;;;19.43;54.29;99606.56;5091820;28;20194;-60
2022/04/21 06:59:28;;;;;;;1.87;1.23;;;;;;;19.44;54.38;99601.63;5091478;28;20174;-60
2022/04/21 07:01:53;;;;;;;2.23;1.20;;;;;;;19.45;54.43;99609.00;5091827;28;20197;-60
2022/04/21 07:04:20;;;;;;;2.43;1.70;;;;;;;19.42;54.54;99604.91;5087231;28;20618;-60
2022/04/21 07:06:45;;;;;;;2.43;1.37;;;;;;;19.44;54.51;99610.22;5091076;28;20734;-60
2022/04/21 07:09:11;;;;;;;2.30;1.40;;;;;;;19.42;54.68;99601.22;5091739;28;20409;-60
2022/04/21 07:11:38;;;;;;;2.30;1.30;;;;;;;19.44;54.65;99613.91;5091868;28;20175;-60
2022/04/21 07:14:04;;;;;;;2.13;1.40;;;;;;;19.45;54.46;99609.00;5091522;28;20225;-60
2022/04/21 07:16:29;;;;;;;2.50;1.40;;;;;;;19.43;54.11;99602.88;5091410;28;20424;-60
2022/04/21 07:18:55;;;;;;;2.40;1.53;;;;;;;19.44;54.82;99607.34;5091212;28;20820;-60
2022/04/21 07:21:20;;;;;;;2.83;1.60;;;;;;;19.42;54.73;99599.16;5091511;28;20170;-60
2022/04/21 07:23:46;;;;;;;2.00;1.20;;;;;;;19.42;54.45;99596.31;5090320;28;20171;-60
2022/04/21 07:26:11;;;;;;;2.10;1.43;;;;;;;19.45;54.53;99597.53;5090328;28;20656;-60
2022/04/21 07:28:37;;;;;;;2.30;1.30;;;;;;;19.44;54.40;99602.47;5089994;28;20648;-60
2022/04/21 07:31:03;;;;;;;3.63;1.40;;;;;;;19.44;54.52;99596.75;5075880;28;20266;-60
2022/04/21 07:33:28;;;;;;;2.13;1.40;;;;;;;19.44;54.69;99596.75;5071290;28;20895;-60
2022/04/21 07:35:54;;;;;;;2.20;1.30;;;;;;;19.44;54.60;99591.00;5070923;28;20265;-60
2022/04/21 07:38:19;;;;;;;2.13;1.33;;;;;;;19.44;54.42;99599.59;5071299;28;20615;-60
2022/04/21 07:40:49;;;;;;;1.80;1.17;;;;;;;19.43;54.86;99592.25;5071200;28;20190;-60
2022/04/21 07:43:15;;;;;;;2.50;1.50;;;;;;;19.43;54.53;99592.25;5087744;28;20565;-60
2022/04/21 07:45:41;;;;;;;2.40;1.40;;;;;;;19.42;54.59;99596.31;5090869;28;20439;-60
2022/04/21 07:48:07;;;;;;;1.80;1.30;;;;;;;19.42;54.48;99595.50;5091513;28;20206;-60
2022/04/21 07:50:33;;;;;;;2.10;1.30;;;;;;;19.43;54.59;99600.84;5091022;28;20182;-60
2022/04/21 07:53:14;;;;;;;2.63;1.30;;;;;;;19.43;54.42;99600.84;5091138;28;20616;-60
2022/04/21 07:55:44;;;;;;;3.33;1.60;;;;;;;19.43;54.59;99595.09;5084494;28;20431;-60
2022/04/21 07:58:09;;;;;;;1.80;1.07;;;;;;;19.44;54.61;99596.75;5091286;28;20919;-60
2022/04/21 08:00:36;;;;;;;1.90;1.20;;;;;;;19.45;54.49;99591.81;5089746;28;20421;-60
2022/04/21 08:03:02;;;;;;;2.40;1.60;;;;;;;19.46;54.55;99594.28;5093692;28;20471;-61
2022/04/21 08:05:28;;;;;;;2.00;1.30;;;;;;;19.46;54.66;99594.28;5094850;28;20493;-60
2022/04/21 08:07:53;;;;;;;2.30;1.47;;;;;;;19.47;54.27;99592.25;5093513;28;20468;-60
2022/04/21 08:10:19;;;;;;;3.17;1.60;;;;;;;19.46;54.43;99599.22;5094845;28;20693;-60
2022/04/21 08:12:49;;;;;;;2.77;1.50;;;;;;;19.48;54.43;99591.84;5095238;28;20622;-60
2022/04/21 08:15:32;;;;;;;2.27;1.33;;;;;;;19.46;54.59;99582.81;5094670;28;20790;-60
2022/04/21 08:18:02;;;;;;;2.00;1.10;;;;;;;19.48;54.27;99586.13;5078559;28;20416;-60
2022/04/21 08:20:29;;;;;;;1.90;1.30;;;;;;;19.47;54.29;99584.47;5094675;28;20872;-60
2022/04/21 08:22:55;;;;;;;2.47;1.60;;;;;;;19.45;54.47;99586.91;5075565;28;20408;-61
2022/04/21 08:33:33;;;;;;;2.23;1.27;;;;;;;19.46;54.33;99590.63;5093233;28;20419;-60
2022/04/21 08:35:59;;;;;;;2.37;1.40;;;;;;;19.45;54.35;99586.09;5094738;28;20852;-60
2022/04/21 08:38:28;;;;;;;1.97;1.30;;;;;;;19.47;54.40;99577.94;5094856;28;20228;-60
2022/04/21 08:40:55;;;;;;;2.00;1.27;;;;;;;19.45;54.61;99584.06;5094565;28;20185;-60
2022/04/21 08:43:21;;;;;;;2.20;1.30;;;;;;;19.46;54.66;99582.81;5093511;28;20413;-60
2022/04/21 08:45:48;;;;;;;2.60;1.30;;;;;;;19.46;54.66;99582.81;5074819;28;20487;-60
2022/04/21 08:48:15;;;;;;;2.20;1.50;;;;;;;19.45;54.31;99578.34;5071060;28;20413;-60
2022/04/21 08:50:40;;;;;;;2.97;1.37;;;;;;;19.44;54.38;99579.56;5071913;28;20422;-60
2022/04/21 08:53:06;;;;;;;1.93;1.30;;;;;;;19.45;54.65;99584.06;5071748;28;20787;-60
2022/04/21 08:55:32;;;;;;;2.37;1.47;;;;;;;19.46;54.64;99587.75;5079246;28;20673;-60
2022/04/21 08:57:58;;;;;;;2.27;1.40;;;;;;;19.45;54.70;99584.06;5094122;28;20446;-60
2022/04/21 09:00:24;;;;;;;2.40;1.60;;;;;;;19.44;54.71;99590.19;5079638;28;20236;-60
2022/04/21 09:02:50;;;;;;;2.03;1.20;;;;;;;19.44;54.99;99582.44;5055759;28;20810;-60
2022/04/21 09:05:16;;;;;;;2.00;1.13;;;;;;;19.45;54.72;99588.94;5073715;28;20552;-61
2022/04/21 09:07:45;;;;;;;1.83;1.23;;;;;;;19.44;54.46;99578.72;5055404;28;20473;-60
2022/04/21 09:10:11;;;;;;;2.77;1.57;;;;;;;19.44;54.93;99578.72;5092326;28;20170;-60
2022/04/21 09:12:43;;;;;;;2.07;1.40;;;;;;;19.44;54.62;99573.84;5092750;28;20564;-60
2022/04/21 09:15:14;;;;;;;2.10;1.20;;;;;;;19.43;54.58;99575.06;5092644;28;20787;-60
2022/04/21 09:17:47;;;;;;;2.53;1.57;;;;;;;19.43;54.36;99571.38;5093833;28;20969;-60
2022/04/21 09:20:13;;;;;;;2.30;1.20;;;;;;;19.46;54.43;99573.44;5093443;28;20876;-60
2022/04/21 09:22:46;;;;;;;2.20;1.23;;;;;;;19.43;54.70;99569.34;5093613;28;20412;-60
2022/04/21 09:25:12;;;;;;;2.90;1.50;;;;;;;19.43;54.44;99574.25;5093438;28;20427;-60
2022/04/21 09:27:39;;;;;;;2.37;1.13;;;;;;;19.43;55.02;99569.34;5093750;28;20416;-60
2022/04/21 09:30:05;;;;;;;2.00;1.30;;;;;;;19.45;54.65;99574.63;5093419;28;20591;-60
2022/04/21 09:32:31;;;;;;;1.97;1.30;;;;;;;19.43;54.82;99572.22;5093330;28;20416;-60
2022/04/21 09:34:57;;;;;;;2.53;1.47;;;;;;;19.43;54.80;99572.22;5088054;28;20448;-60
2022/04/21 09:37:22;;;;;;;2.50;1.50;;;;;;;19.43;54.67;99565.66;5082178;28;20209;-60
2022/04/21 09:39:53;;;;;;;2.40;1.40;;;;;;;19.43;54.62;99549.31;5092030;28;20159;-60
2022/04/21 09:42:28;;;;;;;2.37;1.40;;;;;;;19.41;54.51;99553.78;5093359;28;20647;-60
2022/04/21 09:47:49;;;;;;;2.93;1.70;;;;;;;19.43;54.53;99542.75;5093269;28;20408;-60
2022/04/21 09:50:14;;;;;;;2.67;1.20;;;;;;;19.42;54.62;99539.06;5092428;28;20903;-60
2022/04/21 09:52:47;;;;;;;2.00;1.40;;;;;;;19.43;55.24;99531.28;5093232;28;20170;-60
2022/04/21 09:55:27;;;;;;;1.90;0.97;;;;;;;19.44;54.46;99530.91;5092559;28;20289;-60
2022/04/21 09:58:03;;;;;;;2.10;1.50;;;;;;;19.43;54.53;99529.25;5092949;28;20492;-60
2022/04/21 10:00:29;;;;;;;1.93;1.17;;;;;;;19.43;54.41;99520.69;5091892;28;20871;-60
2022/04/21 10:02:55;;;;;;;1.80;1.10;;;;;;;19.43;54.52;99516.97;5074323;28;20594;-60
2022/04/21 10:05:20;;;;;;;1.97;1.10;;;;;;;19.44;54.47;99515.75;5074555;28;20782;-60
2022/04/21 10:07:46;;;;;;;2.10;1.40;;;;;;;19.42;54.49;99504.69;5092428;28;20222;-60
2022/04/21 10:10:11;;;;;;;2.23;1.50;;;;;;;19.42;54.42;99507.56;5074115;28;20186;-60
2022/04/21 10:12:37;;;;;;;2.10;1.30;;;;;;;19.44;54.58;99505.13;5092998;28;20185;-60
2022/04/21 10:15:04;;;;;;;2.50;1.47;;;;;;;19.44;54.53;99498.56;5092407;28;20677;-60
2022/04/21 10:17:29;;;;;;;2.23;1.20;;;;;;;19.45;54.24;99503.06;5092403;28;20189;-60
2022/04/21 10:19:54;;;;;;;2.40;1.27;;;;;;;19.44;54.40;99505.13;5092193;28;20915;-60
2022/04/21 10:22:20;;;;;;;2.53;1.50;;;;;;;19.44;54.79;99492.84;5072997;28;20174;-60
2022/04/21 10:24:46;;;;;;;3.20;1.50;;;;;;;19.44;54.43;99487.13;5072446;28;20178;-60
2022/04/21 10:27:40;;;;;;;2.83;1.27;;;;;;;19.44;54.80;99479.38;5092263;28;20182;-60
2022/04/21 10:30:21;;;;;;;2.13;1.33;;;;;;;19.44;54.27;99481.41;5092393;28;20738;-61
2022/04/21 10:33:01;;;;;;;2.10;1.30;;;;;;;19.45;54.31;99478.13;5092295;28;20416;-60
2022/04/21 10:35:36;;;;;;;2.87;1.40;;;;;;;19.45;54.35;99480.16;5092288;28;20452;-60
2022/04/21 10:38:13;;;;;;;2.23;1.40;;;;;;;19.43;54.42;99474.88;5077934;28;20429;-61
2022/04/21 10:41:08;;;;;;;3.30;1.30;;;;;;;19.44;54.48;99462.19;5071754;28;20417;-60
2022/04/21 10:43:48;;;;;;;2.20;1.30;;;;;;;19.46;54.50;99473.25;5071790;28;20857;-60
2022/04/21 10:46:21;;;;;;;2.73;1.83;;;;;;;19.45;54.52;99466.69;5071554;28;20448;-60
2022/04/21 10:48:46;;;;;;;2.73;1.40;;;;;;;19.42;54.43;99461.75;5073304;28;20503;-60
2022/04/21 10:51:12;;;;;;;2.30;1.73;;;;;;;19.44;54.34;99449.91;5070654;28;20770;-60
2022/04/21 10:59:30;;;;;;;3.03;1.50;;;;;;;19.42;54.44;99443.78;5067004;28;20424;-60
2022/04/21 11:01:55;;;;;;;2.20;1.40;;;;;;;19.44;54.35;99438.47;5074141;28;20508;-60
2022/04/21 11:04:22;;;;;;;2.43;1.50;;;;;;;19.44;54.41;99435.59;5053462;28;20425;-60
2022/04/21 11:07:05;;;;;;;2.33;1.30;;;;;;;19.45;54.36;99429.47;5071459;28;20642;-60
2022/04/21 11:09:36;;;;;;;2.60;1.60;;;;;;;19.46;54.28;99428.25;5055654;28;20484;-60
2022/04/21 11:12:04;;;;;;;2.40;1.57;;;;;;;19.43;54.48;99429.06;5071883;28;20440;-60
2022/04/21 11:14:31;;;;;;;2.97;1.63;;;;;;;19.46;54.21;99427.44;5053890;28;20963;-60
2022/04/21 11:16:57;;;;;;;2.43;1.33;;;;;;;19.45;54.38;99420.06;5081005;28;20427;-61
2022/04/21 11:19:29;;;;;;;3.20;1.63;;;;;;;19.43;54.24;99422.53;5073884;28;20442;-60
2022/04/21 11:22:08;;;;;;;2.40;1.33;;;;;;;19.44;54.24;99407.81;5091535;28;20420;-60
2022/04/21 11:24:55;;;;;;;2.77;1.70;;;;;;;19.42;54.36;99410.25;5091496;28;20800;-60
2022/04/21 11:27:21;;;;;;;2.30;1.57;;;;;;;19.42;54.57;99401.66;5091510;28;20424;-60
2022/04/21 11:29:47;;;;;;;2.83;1.40;;;;;;;19.45;54.29;99398.00;5073536;28;20908;-60
2022/04/21 11:32:16;;;;;;;2.57;1.30;;;;;;;19.45;54.25;99403.72;5072274;28;20422;-60
2022/04/21 11:34:42;;;;;;;2.30;1.30;;;;;;;19.46;54.51;99390.22;5071070;28;20670;-60
2022/04/21 11:37:07;;;;;;;3.03;1.60;;;;;;;19.45;54.42;99386.53;5075642;28;20483;-60
2022/04/21 11:39:37;;;;;;;2.63;1.30;;;;;;;19.47;54.46;99384.06;5075049;28;20814;-60
2022/04/21 11:42:03;;;;;;;2.50;1.47;;;;;;;19.47;54.34;99386.13;5084231;28;20191;-60
2022/04/21 11:44:28;;;;;;;2.90;1.53;;;;;;;19.48;54.23;99380.00;5095524;28;20463;-60
2022/04/21 11:46:54;;;;;;;4.23;1.80;;;;;;;19.48;54.39;99385.72;5095409;28;20201;-60
2022/04/21 11:49:19;;;;;;;2.80;1.60;;;;;;;19.49;54.22;99375.06;5095442;28;20175;-60
2022/04/21 11:51:48;;;;;;;2.50;1.37;;;;;;;19.48;54.33;99373.44;5095249;28;20536;-60
2022/04/21 11:54:13;;;;;;;1.80;1.20;;;;;;;19.48;54.52;99364.88;5056187;28;20569;-60
2022/04/21 11:56:39;;;;;;;2.13;1.30;;;;;;;19.50;54.25;99365.25;5087813;28;20454;-60
2022/04/21 11:59:08;;;;;;;2.90;1.53;;;;;;;19.50;54.31;99360.34;5095106;28;20174;-60
2022/04/21 12:07:04;;;;;;;2.70;1.53;;;;;;;19.50;54.07;99360.34;5094979;28;20490;-60
2022/04/21 12:09:35;;;;;;;2.70;1.60;;;;;;;19.51;54.46;99356.25;5094998;28;20440;-60
2022/04/21 12:12:02;;;;;;;2.37;1.50;;;;;;;19.54;54.25;99358.31;5094811;28;20645;-60
2022/04/21 12:14:28;;;;;;;2.67;1.40;;;;;;;19.52;54.38;99357.88;5094799;28;20463;-60
2022/04/21 12:16:58;;;;;;;5.80;1.53;;;;;;;19.55;54.25;99339.06;5094718;28;20448;-60
2022/04/21 12:19:33;;;;;;;2.57;1.70;;;;;;;19.56;54.13;99340.75;5094463;28;21010;-60
2022/04/21 12:22:08;;;;;;;2.40;1.50;;;;;;;19.56;54.27;99337.88;5076910;28;20514;-60